createdAt,value
2019-04-01T00:00:06.856Z,0.00
2019-04-01T00:01:07.648Z,0.00
2019-04-01T00:02:06.792Z,0.00
2019-04-01T00:03:06.785Z,0.00
2019-04-01T00:04:06.805Z,0.00
2019-04-01T00:05:06.767Z,0.00
2019-04-01T00:06:06.763Z,0.00
2019-04-01T00:07:06.754Z,0.00
2019-04-01T00:08:06.734Z,0.00
2019-04-01T00:09:06.733Z,0.00
2019-04-01T00:10:06.704Z,0.00
2019-04-01T00:11:06.685Z,0.00
2019-04-01T00:12:06.728Z,0.00
2019-04-01T00:13:06.672Z,0.00
2019-04-01T00:14:06.652Z,0.00
2019-04-01T00:15:06.695Z,0.00
2019-04-01T00:16:06.643Z,0.00
2019-04-01T00:17:06.627Z,0.00
2019-04-01T00:18:06.623Z,0.00
2019-04-01T00:19:06.612Z,0.00
2019-04-01T00:20:06.631Z,0.00
2019-04-01T00:21:06.589Z,0.00
2019-04-01T00:22:06.574Z,0.00
2019-04-01T00:23:06.787Z,0.00
2019-04-01T00:24:06.560Z,0.00
2019-04-01T00:25:06.575Z,0.00
2019-04-01T00:26:06.519Z,0.00
2019-04-01T00:27:06.627Z,0.00
2019-04-01T00:28:06.513Z,0.00
2019-04-01T00:29:06.511Z,0.00
2019-04-01T00:30:06.493Z,0.00
2019-04-01T00:31:06.498Z,0.00
2019-04-01T00:32:06.464Z,0.00
2019-04-01T00:33:06.452Z,0.00
2019-04-01T00:34:06.438Z,0.00
2019-04-01T00:35:06.431Z,0.00
2019-04-01T00:36:06.440Z,0.00
2019-04-01T00:37:06.398Z,0.00
2019-04-01T00:38:06.399Z,0.00
2019-04-01T00:39:06.384Z,0.00
2019-04-01T00:40:06.360Z,0.00
2019-04-01T00:41:06.386Z,0.00
2019-04-01T00:42:06.348Z,0.00
2019-04-01T00:43:06.339Z,0.00
2019-04-01T00:44:06.320Z,0.00
2019-04-01T00:45:06.342Z,0.00
2019-04-01T00:46:06.307Z,0.00
2019-04-01T00:47:06.300Z,0.00
2019-04-01T00:48:06.286Z,0.00
2019-04-01T00:49:06.286Z,0.00
2019-04-01T00:50:06.297Z,0.00
2019-04-01T00:51:06.246Z,0.00
2019-04-01T00:52:06.266Z,0.00
2019-04-01T00:53:06.233Z,0.00
2019-04-01T00:54:06.226Z,0.00
2019-04-01T00:55:06.245Z,0.00
2019-04-01T00:56:06.206Z,0.00
2019-04-01T00:57:06.178Z,0.00
2019-04-01T00:58:06.185Z,0.00
2019-04-01T00:59:06.150Z,0.00
2019-04-01T01:00:06.178Z,0.00
2019-04-01T01:01:06.131Z,0.00
2019-04-01T01:02:06.120Z,0.00
2019-04-01T01:03:06.610Z,0.00
2019-04-01T01:04:06.102Z,0.00
2019-04-01T01:05:06.099Z,0.00
2019-04-01T01:06:06.097Z,0.00
2019-04-01T01:07:06.069Z,0.00
2019-04-01T01:08:06.101Z,0.00
2019-04-01T01:09:06.047Z,0.00
2019-04-01T01:10:06.046Z,0.00
2019-04-01T01:11:06.087Z,0.00
2019-04-01T01:12:06.065Z,0.00
2019-04-01T01:13:06.057Z,0.00
2019-04-01T01:14:06.057Z,0.00
2019-04-01T01:15:06.043Z,0.00
2019-04-01T01:16:06.039Z,0.00
2019-04-01T01:17:05.955Z,0.00
2019-04-01T01:18:05.978Z,0.00
2019-04-01T01:19:05.927Z,0.00
2019-04-01T01:20:05.960Z,0.00
2019-04-01T01:21:05.921Z,0.00
2019-04-01T01:22:05.901Z,0.00
2019-04-01T01:23:05.891Z,0.00
2019-04-01T01:24:05.894Z,0.00
2019-04-01T01:25:05.947Z,0.00
2019-04-01T01:26:05.851Z,0.00
2019-04-01T01:27:05.860Z,0.00
2019-04-01T01:28:05.868Z,0.00
2019-04-01T01:29:05.841Z,0.00
2019-04-01T01:30:05.851Z,0.00
2019-04-01T01:31:05.826Z,0.00
2019-04-01T01:32:05.837Z,0.00
2019-04-01T01:33:05.789Z,0.00
2019-04-01T01:34:05.853Z,0.00
2019-04-01T01:35:05.750Z,0.00
2019-04-01T01:36:05.766Z,0.00
2019-04-01T01:37:05.763Z,0.00
2019-04-01T01:38:05.746Z,0.00
2019-04-01T01:39:05.807Z,0.00
2019-04-01T01:40:05.727Z,0.00
2019-04-01T01:41:05.723Z,0.00
2019-04-01T01:42:05.681Z,0.00
2019-04-01T01:43:05.672Z,0.00
2019-04-01T01:44:05.699Z,0.00
2019-04-01T01:45:05.661Z,0.00
2019-04-01T01:46:05.674Z,0.00
2019-04-01T01:47:05.629Z,0.00
2019-04-01T01:48:05.611Z,0.00
2019-04-01T01:49:05.610Z,0.00
2019-04-01T01:50:05.585Z,0.00
2019-04-01T01:51:05.576Z,0.00
2019-04-01T01:52:05.598Z,0.00
2019-04-01T01:53:05.590Z,0.00
2019-04-01T01:54:05.570Z,0.00
2019-04-01T01:55:05.540Z,0.00
2019-04-01T01:56:05.568Z,0.00
2019-04-01T01:57:05.525Z,0.00
2019-04-01T01:58:05.532Z,0.00
2019-04-01T01:59:05.540Z,0.00
2019-04-01T02:00:05.494Z,0.00
2019-04-01T02:01:05.472Z,0.00
2019-04-01T02:02:05.531Z,0.00
2019-04-01T02:03:05.495Z,0.00
2019-04-01T02:04:05.448Z,0.00
2019-04-01T02:05:05.423Z,0.00
2019-04-01T02:06:05.409Z,0.00
2019-04-01T02:07:05.435Z,0.00
2019-04-01T02:08:05.411Z,0.00
2019-04-01T02:09:05.403Z,0.00
2019-04-01T02:10:05.381Z,0.00
2019-04-01T02:11:05.354Z,0.00
2019-04-01T02:12:05.344Z,0.00
2019-04-01T02:13:05.354Z,0.00
2019-04-01T02:14:05.327Z,0.00
2019-04-01T02:15:05.327Z,0.00
2019-04-01T02:16:05.340Z,0.00
2019-04-01T02:17:05.311Z,0.00
2019-04-01T02:18:05.289Z,0.00
2019-04-01T02:19:05.313Z,0.00
2019-04-01T02:20:05.327Z,0.00
2019-04-01T02:21:05.264Z,0.00
2019-04-01T02:22:05.270Z,0.00
2019-04-01T02:23:05.242Z,0.00
2019-04-01T02:24:05.235Z,0.00
2019-04-01T02:25:05.213Z,0.00
2019-04-01T02:26:05.208Z,0.00
2019-04-01T02:27:05.187Z,0.00
2019-04-01T02:28:05.222Z,0.00
2019-04-01T02:29:05.190Z,0.00
2019-04-01T02:30:05.220Z,0.00
2019-04-01T02:31:05.211Z,0.00
2019-04-01T02:32:05.119Z,0.00
2019-04-01T02:33:05.131Z,0.00
2019-04-01T02:34:05.127Z,0.00
2019-04-01T02:35:05.147Z,0.00
2019-04-01T02:36:05.078Z,0.00
2019-04-01T02:37:05.094Z,0.00
2019-04-01T02:38:05.073Z,0.00
2019-04-01T02:39:05.071Z,0.00
2019-04-01T02:40:05.063Z,0.00
2019-04-01T02:41:05.017Z,0.00
2019-04-01T02:42:05.035Z,0.00
2019-04-01T02:43:05.097Z,0.00
2019-04-01T02:44:05.031Z,0.00
2019-04-01T02:45:05.034Z,0.00
2019-04-01T02:46:04.992Z,0.00
2019-04-01T02:47:04.950Z,0.00
2019-04-01T02:48:04.952Z,0.00
2019-04-01T02:49:04.937Z,0.00
2019-04-01T02:50:04.927Z,0.00
2019-04-01T02:51:04.920Z,0.00
2019-04-01T02:52:04.925Z,0.00
2019-04-01T02:53:04.884Z,0.00
2019-04-01T02:54:04.909Z,0.00
2019-04-01T02:55:06.801Z,0.00
2019-04-01T02:56:04.913Z,0.00
2019-04-01T02:57:04.883Z,0.00
2019-04-01T02:58:04.855Z,0.00
2019-04-01T02:59:04.841Z,0.00
2019-04-01T03:00:04.820Z,0.00
2019-04-01T03:01:04.895Z,0.00
2019-04-01T03:02:04.803Z,0.00
2019-04-01T03:03:04.805Z,0.00
2019-04-01T03:04:04.803Z,0.00
2019-04-01T03:05:04.776Z,0.00
2019-04-01T03:06:04.767Z,0.00
2019-04-01T03:07:04.763Z,0.00
2019-04-01T03:08:04.732Z,0.00
2019-04-01T03:09:04.719Z,0.00
2019-04-01T03:10:04.731Z,0.00
2019-04-01T03:11:04.707Z,0.00
2019-04-01T03:12:04.687Z,0.00
2019-04-01T03:13:05.154Z,0.00
2019-04-01T03:14:04.650Z,0.00
2019-04-01T03:15:04.692Z,0.00
2019-04-01T03:16:04.669Z,0.00
2019-04-01T03:17:04.661Z,0.00
2019-04-01T03:18:04.655Z,0.00
2019-04-01T03:19:04.605Z,0.00
2019-04-01T03:20:04.621Z,0.00
2019-04-01T03:21:04.590Z,0.00
2019-04-01T03:22:04.571Z,0.00
2019-04-01T03:23:04.575Z,0.00
2019-04-01T03:24:04.602Z,0.00
2019-04-01T03:25:04.537Z,0.00
2019-04-01T03:26:04.524Z,0.00
2019-04-01T03:27:04.546Z,0.00
2019-04-01T03:28:04.527Z,0.00
2019-04-01T03:29:04.512Z,0.00
2019-04-01T03:30:04.486Z,0.00
2019-04-01T03:31:04.515Z,0.00
2019-04-01T03:32:04.485Z,0.00
2019-04-01T03:33:04.487Z,0.00
2019-04-01T03:34:04.495Z,0.00
2019-04-01T03:35:04.438Z,0.00
2019-04-01T03:36:04.446Z,0.00
2019-04-01T03:37:04.421Z,0.00
2019-04-01T03:38:04.395Z,0.00
2019-04-01T03:39:04.379Z,0.00
2019-04-01T03:40:04.420Z,0.00
2019-04-01T03:41:04.401Z,0.00
2019-04-01T03:42:04.361Z,0.00
2019-04-01T03:43:04.339Z,0.00
2019-04-01T03:44:04.372Z,0.00
2019-04-01T03:45:04.350Z,0.00
2019-04-01T03:46:04.335Z,0.00
2019-04-01T03:47:04.404Z,0.00
2019-04-01T03:48:04.275Z,0.00
2019-04-01T03:49:04.284Z,0.00
2019-04-01T03:50:04.287Z,0.00
2019-04-01T03:51:04.272Z,0.00
2019-04-01T03:52:04.245Z,0.00
2019-04-01T03:53:04.278Z,0.00
2019-04-01T03:54:04.278Z,0.00
2019-04-01T03:55:04.234Z,0.00
2019-04-01T03:56:04.223Z,0.00
2019-04-01T03:57:04.173Z,0.00
2019-04-01T03:58:04.248Z,0.00
2019-04-01T03:59:04.162Z,0.00
2019-04-01T04:00:04.152Z,0.00
2019-04-01T04:01:04.138Z,0.00
2019-04-01T04:02:04.165Z,0.00
2019-04-01T04:03:04.180Z,0.00
2019-04-01T04:04:04.133Z,0.00
2019-04-01T04:05:04.099Z,0.00
2019-04-01T04:06:04.138Z,0.00
2019-04-01T04:07:04.158Z,0.00
2019-04-01T04:08:04.052Z,0.00
2019-04-01T04:09:04.083Z,0.00
2019-04-01T04:10:04.034Z,0.00
2019-04-01T04:11:04.020Z,0.00
2019-04-01T04:12:04.043Z,0.00
2019-04-01T04:13:04.008Z,0.00
2019-04-01T04:14:03.984Z,0.00
2019-04-01T04:15:03.993Z,0.00
2019-04-01T04:16:03.972Z,0.00
2019-04-01T04:17:03.973Z,0.00
2019-04-01T04:18:04.008Z,0.00
2019-04-01T04:19:03.932Z,0.00
2019-04-01T04:20:03.937Z,0.00
2019-04-01T04:21:03.928Z,0.00
2019-04-01T04:22:03.895Z,0.00
2019-04-01T04:23:03.884Z,0.00
2019-04-01T04:24:03.902Z,0.00
2019-04-01T04:25:03.862Z,0.00
2019-04-01T04:26:03.870Z,0.00
2019-04-01T04:27:03.850Z,0.00
2019-04-01T04:28:03.841Z,0.00
2019-04-01T04:29:03.837Z,4.00
2019-04-01T04:30:03.824Z,4.00
2019-04-01T04:31:03.820Z,4.00
2019-04-01T04:32:03.792Z,16.00
2019-04-01T04:33:03.786Z,20.00
2019-04-01T04:34:03.768Z,24.00
2019-04-01T04:35:03.807Z,28.00
2019-04-01T04:36:03.761Z,24.00
2019-04-01T04:37:03.784Z,4.00
2019-04-01T04:38:03.739Z,4.00
2019-04-01T04:39:03.719Z,8.00
2019-04-01T04:40:03.721Z,8.00
2019-04-01T04:41:03.775Z,12.00
2019-04-01T04:42:03.671Z,12.00
2019-04-01T04:43:03.694Z,12.00
2019-04-01T04:44:03.681Z,16.00
2019-04-01T04:45:03.717Z,16.00
2019-04-01T04:46:03.650Z,16.00
2019-04-01T04:47:03.627Z,20.00
2019-04-01T04:48:03.614Z,36.00
2019-04-01T04:49:03.625Z,44.00
2019-04-01T04:50:03.594Z,48.00
2019-04-01T04:51:03.597Z,52.00
2019-04-01T04:52:04.677Z,52.00
2019-04-01T04:53:03.559Z,56.00
2019-04-01T04:54:03.562Z,40.00
2019-04-01T04:55:03.547Z,64.00
2019-04-01T04:56:03.549Z,68.00
2019-04-01T04:57:03.560Z,72.00
2019-04-01T04:58:03.502Z,76.00
2019-04-01T04:59:03.505Z,80.00
2019-04-01T05:00:03.496Z,64.00
2019-04-01T05:01:03.465Z,68.00
2019-04-01T05:02:03.471Z,72.00
2019-04-01T05:03:03.450Z,76.00
2019-04-01T05:04:03.542Z,80.00
2019-04-01T05:05:03.448Z,88.00
2019-04-01T05:06:03.424Z,96.00
2019-04-01T05:07:03.423Z,96.00
2019-04-01T05:08:03.384Z,108.00
2019-04-01T05:09:03.405Z,112.00
2019-04-01T05:10:03.395Z,120.00
2019-04-01T05:11:03.348Z,152.00
2019-04-01T05:12:03.364Z,164.00
2019-04-01T05:13:03.352Z,172.00
2019-04-01T05:14:03.316Z,180.00
2019-04-01T05:15:03.319Z,196.00
2019-04-01T05:16:03.307Z,180.00
2019-04-01T05:17:03.302Z,192.00
2019-04-01T05:18:03.334Z,216.00
2019-04-01T05:19:03.282Z,232.00
2019-04-01T05:20:03.273Z,240.00
2019-04-01T05:21:03.286Z,252.00
2019-04-01T05:22:03.308Z,260.00
2019-04-01T05:23:03.234Z,272.00
2019-04-01T05:24:03.233Z,284.00
2019-04-01T05:25:03.200Z,272.00
2019-04-01T05:26:03.183Z,284.00
2019-04-01T05:27:03.188Z,292.00
2019-04-01T05:28:03.208Z,308.00
2019-04-01T05:29:03.190Z,320.00
2019-04-01T05:30:03.228Z,344.00
2019-04-01T05:31:03.182Z,360.00
2019-04-01T05:32:03.116Z,376.00
2019-04-01T05:33:03.112Z,388.00
2019-04-01T05:34:03.104Z,396.00
2019-04-01T05:35:03.118Z,408.00
2019-04-01T05:36:03.078Z,400.00
2019-04-01T05:37:03.165Z,408.00
2019-04-01T05:38:03.056Z,420.00
2019-04-01T05:39:03.057Z,436.00
2019-04-01T05:40:03.057Z,444.00
2019-04-01T05:41:03.028Z,452.00
2019-04-01T05:42:03.062Z,460.00
2019-04-01T05:43:02.994Z,468.00
2019-04-01T05:44:02.998Z,480.00
2019-04-01T05:45:02.979Z,488.00
2019-04-01T05:46:03.338Z,496.00
2019-04-01T05:47:02.950Z,504.00
2019-04-01T05:48:02.945Z,516.00
2019-04-01T05:49:02.942Z,528.00
2019-04-01T05:50:02.987Z,552.00
2019-04-01T05:51:02.977Z,564.00
2019-04-01T05:52:02.897Z,576.00
2019-04-01T05:53:03.030Z,584.00
2019-04-01T05:54:02.877Z,596.00
2019-04-01T05:55:02.878Z,604.00
2019-04-01T05:56:02.956Z,616.00
2019-04-01T05:57:02.979Z,628.00
2019-04-01T05:58:02.848Z,640.00
2019-04-01T05:59:02.820Z,656.00
2019-04-01T06:00:02.809Z,672.00
2019-04-01T06:01:02.799Z,684.00
2019-04-01T06:02:02.810Z,704.00
2019-04-01T06:03:02.781Z,696.00
2019-04-01T06:04:02.802Z,708.00
2019-04-01T06:05:02.796Z,712.00
2019-04-01T06:06:02.842Z,740.00
2019-04-01T06:07:02.778Z,756.00
2019-04-01T06:08:02.735Z,768.00
2019-04-01T06:09:02.721Z,780.00
2019-04-01T06:10:02.720Z,788.00
2019-04-01T06:11:02.691Z,776.00
2019-04-01T06:12:02.684Z,792.00
2019-04-01T06:13:02.672Z,800.00
2019-04-01T06:14:02.673Z,832.00
2019-04-01T06:15:02.660Z,840.00
2019-04-01T06:16:02.625Z,848.00
2019-04-01T06:17:02.641Z,864.00
2019-04-01T06:18:02.629Z,872.00
2019-04-01T06:19:05.861Z,864.00
2019-04-01T06:20:02.614Z,872.00
2019-04-01T06:21:02.577Z,876.00
2019-04-01T06:22:02.571Z,888.00
2019-04-01T06:23:02.561Z,896.00
2019-04-01T06:24:02.581Z,900.00
2019-04-01T06:25:02.552Z,912.00
2019-04-01T06:26:02.575Z,928.00
2019-04-01T06:27:02.512Z,940.00
2019-04-01T06:28:02.514Z,944.00
2019-04-01T06:29:02.485Z,948.00
2019-04-01T06:30:02.480Z,956.00
2019-04-01T06:31:02.469Z,984.00
2019-04-01T06:32:02.470Z,1000.00
2019-04-01T06:33:02.458Z,1008.00
2019-04-01T06:34:02.447Z,1016.00
2019-04-01T06:35:02.446Z,1016.00
2019-04-01T06:36:02.426Z,1020.00
2019-04-01T06:37:02.418Z,1032.00
2019-04-01T06:38:02.434Z,1044.00
2019-04-01T06:39:02.381Z,1048.00
2019-04-01T06:40:02.430Z,1052.00
2019-04-01T06:41:02.368Z,1060.00
2019-04-01T06:42:02.373Z,1064.00
2019-04-01T06:43:02.352Z,1076.00
2019-04-01T06:44:02.333Z,1084.00
2019-04-01T06:45:02.309Z,1088.00
2019-04-01T06:46:02.293Z,1096.00
2019-04-01T06:47:02.343Z,1108.00
2019-04-01T06:48:02.569Z,1104.00
2019-04-01T06:49:02.279Z,1104.00
2019-04-01T06:50:02.288Z,1120.00
2019-04-01T06:51:02.318Z,1124.00
2019-04-01T06:52:02.253Z,1152.00
2019-04-01T06:53:02.234Z,1160.00
2019-04-01T06:54:02.268Z,1168.00
2019-04-01T06:55:02.275Z,1164.00
2019-04-01T06:56:02.220Z,1168.00
2019-04-01T06:57:02.318Z,1184.00
2019-04-01T06:58:02.266Z,1196.00
2019-04-01T06:59:02.183Z,1208.00
2019-04-01T07:00:02.251Z,1208.00
2019-04-01T07:01:02.154Z,1200.00
2019-04-01T07:02:02.217Z,1208.00
2019-04-01T07:03:02.220Z,1220.00
2019-04-01T07:04:02.095Z,1232.00
2019-04-01T07:05:02.191Z,1248.00
2019-04-01T07:06:02.132Z,1236.00
2019-04-01T07:07:02.380Z,1236.00
2019-04-01T07:08:02.070Z,1260.00
2019-04-01T07:09:02.052Z,1268.00
2019-04-01T07:10:02.382Z,1284.00
2019-04-01T07:11:02.163Z,1296.00
2019-04-01T07:12:02.019Z,1296.00
2019-04-01T07:13:02.091Z,1292.00
2019-04-01T07:14:01.988Z,1296.00
2019-04-01T07:15:01.981Z,1304.00
2019-04-01T07:16:14.711Z,1308.00
2019-04-01T07:17:02.967Z,1324.00
2019-04-01T07:18:01.955Z,1328.00
2019-04-01T07:19:01.935Z,1336.00
2019-04-01T07:20:01.935Z,1300.00
2019-04-01T07:21:02.700Z,1312.00
2019-04-01T07:22:01.915Z,1312.00
2019-04-01T07:23:01.953Z,1336.00
2019-04-01T07:24:01.874Z,1316.00
2019-04-01T07:25:01.920Z,1292.00
2019-04-01T07:26:01.900Z,1292.00
2019-04-01T07:27:01.878Z,1336.00
2019-04-01T07:28:01.874Z,1332.00
2019-04-01T07:29:01.825Z,1332.00
2019-04-01T07:30:01.838Z,1320.00
2019-04-01T07:31:01.799Z,1332.00
2019-04-01T07:32:01.783Z,1324.00
2019-04-01T07:33:01.807Z,1336.00
2019-04-01T07:34:01.764Z,1352.00
2019-04-01T07:35:01.806Z,1324.00
2019-04-01T07:36:01.739Z,1332.00
2019-04-01T07:37:01.735Z,1348.00
2019-04-01T07:38:01.759Z,1320.00
2019-04-01T07:39:01.741Z,1320.00
2019-04-01T07:40:01.748Z,1328.00
2019-04-01T07:41:01.737Z,1340.00
2019-04-01T07:42:01.673Z,1360.00
2019-04-01T07:43:01.688Z,1328.00
2019-04-01T07:44:01.675Z,1316.00
2019-04-01T07:45:01.700Z,1336.00
2019-04-01T07:46:01.717Z,1356.00
2019-04-01T07:47:01.616Z,1348.00
2019-04-01T07:48:01.676Z,1388.00
2019-04-01T07:49:01.606Z,1360.00
2019-04-01T07:50:01.587Z,1348.00
2019-04-01T07:51:01.604Z,1380.00
2019-04-01T07:52:01.568Z,1352.00
2019-04-01T07:53:01.561Z,1376.00
2019-04-01T07:54:01.541Z,1416.00
2019-04-01T07:55:01.554Z,1364.00
2019-04-01T07:56:02.759Z,1376.00
2019-04-01T07:57:01.529Z,1356.00
2019-04-01T07:58:01.683Z,1344.00
2019-04-01T07:59:01.731Z,1356.00
2019-04-01T08:00:01.509Z,1368.00
2019-04-01T08:01:01.465Z,1372.00
2019-04-01T08:02:01.461Z,1336.00
2019-04-01T08:03:01.444Z,1352.00
2019-04-01T08:04:01.431Z,1352.00
2019-04-01T08:05:01.429Z,1364.00
2019-04-01T08:06:01.403Z,1352.00
2019-04-01T08:07:01.412Z,1376.00
2019-04-01T08:08:01.443Z,1352.00
2019-04-01T08:09:01.456Z,1352.00
2019-04-01T08:10:01.377Z,1360.00
2019-04-01T08:11:01.367Z,1336.00
2019-04-01T08:12:01.337Z,1400.00
2019-04-01T08:13:01.336Z,1392.00
2019-04-01T08:14:01.331Z,1368.00
2019-04-01T08:15:01.351Z,1312.00
2019-04-01T08:16:01.301Z,1348.00
2019-04-01T08:17:01.291Z,1352.00
2019-04-01T08:18:01.274Z,1380.00
2019-04-01T08:19:01.293Z,1340.00
2019-04-01T08:20:01.299Z,1348.00
2019-04-01T08:21:01.236Z,1340.00
2019-04-01T08:22:01.247Z,1360.00
2019-04-01T08:23:01.287Z,1324.00
2019-04-01T08:24:01.230Z,1320.00
2019-04-01T08:25:01.201Z,1300.00
2019-04-01T08:26:01.233Z,1312.00
2019-04-01T08:27:01.169Z,1312.00
2019-04-01T08:28:01.188Z,1320.00
2019-04-01T08:29:01.169Z,1328.00
2019-04-01T08:30:01.150Z,1340.00
2019-04-01T08:31:01.153Z,1320.00
2019-04-01T08:32:01.124Z,1360.00
2019-04-01T08:33:01.130Z,1360.00
2019-04-01T08:34:01.141Z,1392.00
2019-04-01T08:35:01.155Z,1420.00
2019-04-01T08:36:01.085Z,1332.00
2019-04-01T08:37:01.061Z,1400.00
2019-04-01T08:38:01.060Z,1380.00
2019-04-01T08:39:01.105Z,1420.00
2019-04-01T08:40:01.035Z,1548.00
2019-04-01T08:41:01.021Z,1484.00
2019-04-01T08:42:01.004Z,1484.00
2019-04-01T08:43:01.010Z,1372.00
2019-04-01T08:44:03.197Z,1384.00
2019-04-01T08:45:00.990Z,1320.00
2019-04-01T08:46:00.957Z,1336.00
2019-04-01T08:47:00.976Z,1340.00
2019-04-01T08:48:00.992Z,1340.00
2019-04-01T08:49:00.935Z,1356.00
2019-04-01T08:50:00.943Z,1364.00
2019-04-01T08:51:00.930Z,1352.00
2019-04-01T08:52:00.912Z,1344.00
2019-04-01T08:53:00.902Z,1340.00
2019-04-01T08:54:00.879Z,1352.00
2019-04-01T08:55:00.877Z,1308.00
2019-04-01T08:56:01.393Z,1348.00
2019-04-01T08:57:00.853Z,1348.00
2019-04-01T08:58:00.826Z,1308.00
2019-04-01T08:59:00.823Z,1300.00
2019-04-01T09:00:00.815Z,1312.00
2019-04-01T09:01:00.865Z,1304.00
2019-04-01T09:02:00.836Z,1308.00
2019-04-01T09:03:00.819Z,1264.00
2019-04-01T09:04:00.774Z,1268.00
2019-04-01T09:05:00.811Z,1300.00
2019-04-01T09:06:00.840Z,1276.00
2019-04-01T09:07:00.760Z,1288.00
2019-04-01T09:08:00.726Z,1328.00
2019-04-01T09:09:00.861Z,1356.00
2019-04-01T09:10:00.700Z,1480.00
2019-04-01T09:11:00.726Z,1420.00
2019-04-01T09:12:00.715Z,1372.00
2019-04-01T09:13:00.671Z,1272.00
2019-04-01T09:14:00.694Z,1284.00
2019-04-01T09:15:00.645Z,1268.00
2019-04-01T09:16:00.643Z,1268.00
2019-04-01T09:17:00.628Z,1312.00
2019-04-01T09:18:00.603Z,1368.00
2019-04-01T09:19:00.642Z,1364.00
2019-04-01T09:20:00.615Z,1264.00
2019-04-01T09:21:00.578Z,1348.00
2019-04-01T09:22:00.574Z,1372.00
2019-04-01T09:23:00.685Z,1424.00
2019-04-01T09:24:00.602Z,1388.00
2019-04-01T09:25:00.528Z,1508.00
2019-04-01T09:26:00.518Z,1596.00
2019-04-01T09:27:00.522Z,1640.00
2019-04-01T09:28:00.498Z,1772.00
2019-04-01T09:29:00.524Z,1596.00
2019-04-01T09:30:00.535Z,1696.00
2019-04-01T09:31:00.463Z,1728.00
2019-04-01T09:32:00.489Z,1416.00
2019-04-01T09:33:00.439Z,1324.00
2019-04-01T09:34:00.439Z,1324.00
2019-04-01T09:35:00.558Z,1204.00
2019-04-01T09:36:00.408Z,1256.00
2019-04-01T09:37:00.416Z,1392.00
2019-04-01T09:38:00.386Z,1416.00
2019-04-01T09:39:00.383Z,1424.00
2019-04-01T09:40:00.408Z,1548.00
2019-04-01T09:41:00.385Z,1816.00
2019-04-01T09:42:00.372Z,1504.00
2019-04-01T09:43:00.354Z,1328.00
2019-04-01T09:44:00.381Z,1336.00
2019-04-01T09:45:00.413Z,1388.00
2019-04-01T09:46:00.350Z,1384.00
2019-04-01T09:47:00.325Z,1292.00
2019-04-01T09:48:00.391Z,1368.00
2019-04-01T09:49:00.337Z,1412.00
2019-04-01T09:50:00.400Z,1544.00
2019-04-01T09:51:00.279Z,1364.00
2019-04-01T09:52:03.752Z,1316.00
2019-04-01T09:53:00.227Z,1380.00
2019-04-01T09:54:00.247Z,1388.00
2019-04-01T09:55:00.392Z,1448.00
2019-04-01T09:56:00.289Z,1584.00
2019-04-01T09:57:00.290Z,1524.00
2019-04-01T09:58:00.170Z,1380.00
2019-04-01T09:59:00.190Z,1516.00
2019-04-01T10:00:00.364Z,1480.00
2019-04-01T10:01:00.145Z,1372.00
2019-04-01T10:02:00.173Z,1316.00
2019-04-01T10:03:00.107Z,1344.00
2019-04-01T10:04:00.132Z,1336.00
2019-04-01T10:05:00.261Z,1308.00
2019-04-01T10:06:00.088Z,1296.00
2019-04-01T10:07:00.087Z,1316.00
2019-04-01T10:08:00.067Z,1332.00
2019-04-01T10:09:00.042Z,1376.00
2019-04-01T10:10:00.046Z,1464.00
2019-04-01T10:11:00.042Z,1364.00
2019-04-01T10:12:00.048Z,1324.00
2019-04-01T10:13:00.020Z,1344.00
2019-04-01T10:14:00.002Z,1496.00
2019-04-01T10:14:59.987Z,1380.00
2019-04-01T10:16:00.007Z,1436.00
2019-04-01T10:16:59.946Z,1504.00
2019-04-01T10:17:59.938Z,1640.00
2019-04-01T10:18:59.979Z,1744.00
2019-04-01T10:20:01.030Z,1616.00
2019-04-01T10:20:59.929Z,1936.00
2019-04-01T10:21:59.915Z,1936.00
2019-04-01T10:22:59.916Z,1816.00
2019-04-01T10:23:59.894Z,1728.00
2019-04-01T10:24:59.854Z,1608.00
2019-04-01T10:26:00.693Z,1696.00
2019-04-01T10:26:59.829Z,1828.00
2019-04-01T10:27:59.832Z,1640.00
2019-04-01T10:28:59.837Z,1800.00
2019-04-01T10:29:59.821Z,1664.00
2019-04-01T10:31:07.291Z,1576.00
2019-04-01T10:31:59.774Z,1440.00
2019-04-01T10:33:02.158Z,1268.00
2019-04-01T10:33:59.749Z,1232.00
2019-04-01T10:34:59.794Z,1228.00
2019-04-01T10:35:59.737Z,1272.00
2019-04-01T10:36:59.727Z,1100.00
2019-04-01T10:37:59.706Z,1200.00
2019-04-01T10:38:59.715Z,1308.00
2019-04-01T10:40:00.290Z,1432.00
2019-04-01T10:40:59.682Z,1296.00
2019-04-01T10:41:59.677Z,1376.00
2019-04-01T10:42:59.646Z,1324.00
2019-04-01T10:43:59.649Z,1540.00
2019-04-01T10:44:59.654Z,1724.00
2019-04-01T10:45:59.664Z,1768.00
2019-04-01T10:46:59.665Z,1724.00
2019-04-01T10:47:59.684Z,1560.00
2019-04-01T10:48:59.602Z,1668.00
2019-04-01T10:49:59.601Z,1640.00
2019-04-01T10:50:59.589Z,1564.00
2019-04-01T10:51:59.579Z,1388.00
2019-04-01T10:52:59.562Z,1344.00
2019-04-01T10:53:59.623Z,1280.00
2019-04-01T10:54:59.536Z,1168.00
2019-04-01T10:55:59.590Z,1160.00
2019-04-01T10:56:59.550Z,1252.00
2019-04-01T10:57:59.582Z,1144.00
2019-04-01T10:58:59.611Z,1064.00
2019-04-01T10:59:59.567Z,1064.00
2019-04-01T11:00:59.492Z,1008.00
2019-04-01T11:01:59.493Z,1016.00
2019-04-01T11:02:59.480Z,988.00
2019-04-01T11:03:59.468Z,1128.00
2019-04-01T11:04:59.461Z,1272.00
2019-04-01T11:05:59.465Z,1240.00
2019-04-01T11:06:59.416Z,1172.00
2019-04-01T11:07:59.466Z,1168.00
2019-04-01T11:08:59.491Z,1172.00
2019-04-01T11:09:59.342Z,1240.00
2019-04-01T11:10:59.743Z,1388.00
2019-04-01T11:11:59.348Z,1408.00
2019-04-01T11:12:59.409Z,1420.00
2019-04-01T11:13:59.337Z,1236.00
2019-04-01T11:14:59.331Z,1224.00
2019-04-01T11:15:59.369Z,1052.00
2019-04-01T11:16:59.277Z,1120.00
2019-04-01T11:17:59.310Z,1116.00
2019-04-01T11:18:59.283Z,1108.00
2019-04-01T11:19:59.292Z,1124.00
2019-04-01T11:20:59.384Z,988.00
2019-04-01T11:21:59.226Z,988.00
2019-04-01T11:23:02.353Z,1180.00
2019-04-01T11:23:59.291Z,1132.00
2019-04-01T11:24:59.193Z,1036.00
2019-04-01T11:25:59.182Z,1180.00
2019-04-01T11:26:59.210Z,1224.00
2019-04-01T11:27:59.143Z,1136.00
2019-04-01T11:28:59.166Z,1016.00
2019-04-01T11:29:59.145Z,1044.00
2019-04-01T11:30:59.165Z,1120.00
2019-04-01T11:31:59.180Z,1060.00
2019-04-01T11:32:59.142Z,1176.00
2019-04-01T11:33:59.086Z,1364.00
2019-04-01T11:34:59.088Z,1540.00
2019-04-01T11:35:59.083Z,1684.00
2019-04-01T11:36:59.059Z,1492.00
2019-04-01T11:37:59.124Z,1276.00
2019-04-01T11:38:59.138Z,1212.00
2019-04-01T11:39:59.058Z,1144.00
2019-04-01T11:40:59.069Z,1128.00
2019-04-01T11:42:01.413Z,1060.00
2019-04-01T11:42:59.040Z,1068.00
2019-04-01T11:43:59.004Z,1024.00
2019-04-01T11:44:59.123Z,1064.00
2019-04-01T11:45:58.958Z,1052.00
2019-04-01T11:46:59.024Z,1016.00
2019-04-01T11:47:58.939Z,1140.00
2019-04-01T11:48:58.987Z,1208.00
2019-04-01T11:49:58.965Z,1316.00
2019-04-01T11:50:58.948Z,1336.00
2019-04-01T11:51:58.888Z,1340.00
2019-04-01T11:52:58.969Z,1296.00
2019-04-01T11:53:58.881Z,1368.00
2019-04-01T11:54:58.870Z,1392.00
2019-04-01T11:55:58.891Z,1388.00
2019-04-01T11:56:58.886Z,1500.00
2019-04-01T11:57:58.842Z,1480.00
2019-04-01T11:58:58.805Z,1308.00
2019-04-01T11:59:58.814Z,1220.00
2019-04-01T12:00:58.801Z,1036.00
2019-04-01T12:01:58.756Z,1236.00
2019-04-01T12:02:58.785Z,1332.00
2019-04-01T12:03:58.786Z,1276.00
2019-04-01T12:04:58.748Z,1096.00
2019-04-01T12:05:58.733Z,960.00
2019-04-01T12:07:01.828Z,1180.00
2019-04-01T12:07:58.692Z,1012.00
2019-04-01T12:08:59.031Z,972.00
2019-04-01T12:09:58.683Z,996.00
2019-04-01T12:10:58.673Z,960.00
2019-04-01T12:11:58.688Z,908.00
2019-04-01T12:12:59.979Z,860.00
2019-04-01T12:13:58.640Z,884.00
2019-04-01T12:14:58.633Z,1024.00
2019-04-01T12:15:58.631Z,1208.00
2019-04-01T12:16:58.621Z,1484.00
2019-04-01T12:17:58.639Z,1376.00
2019-04-01T12:18:58.604Z,1312.00
2019-04-01T12:19:58.560Z,1084.00
2019-04-01T12:20:58.587Z,1084.00
2019-04-01T12:21:58.548Z,1216.00
2019-04-01T12:22:58.564Z,1508.00
2019-04-01T12:23:58.553Z,1760.00
2019-04-01T12:24:58.567Z,1516.00
2019-04-01T12:25:58.559Z,1668.00
2019-04-01T12:26:58.563Z,1240.00
2019-04-01T12:27:58.482Z,1060.00
2019-04-01T12:28:58.488Z,1092.00
2019-04-01T12:29:58.490Z,1060.00
2019-04-01T12:30:58.486Z,1072.00
2019-04-01T12:31:59.770Z,1100.00
2019-04-01T12:32:58.431Z,1040.00
2019-04-01T12:33:58.421Z,1024.00
2019-04-01T12:34:58.406Z,916.00